sensor_id;sensor_type;location;lat;lon;timestamp;pressure;altitude;pressure_sealevel;temperature;humidity
72157;BME280;60035;52.122;5.406;2023-07-20T00:01:29;101603.25;;;17.29;100.00
72157;BME280;60035;52.122;5.406;2023-07-20T00:03:55;101599.84;;;17.28;100.00
72157;BME280;60035;52.122;5.406;2023-07-20T00:06:26;101604.03;;;17.31;100.00
72157;BME280;60035;52.122;5.406;2023-07-20T00:08:54;101603.25;;;17.29;100.00
72157;BME280;60035;52.122;5.406;2023-07-20T00:11:26;101606.00;;;17.26;100.00
72157;BME280;60035;52.122;5.406;2023-07-20T00:13:53;101601.16;;;17.18;100.00
72157;BME280;60035;52.122;5.406;2023-07-20T00:16:20;101603.03;;;17.14;100.00
72157;BME280;60035;52.122;5.406;2023-07-20T00:18:47;101607.38;;;17.14;100.00
72157;BME280;60035;52.122;5.406;2023-07-20T00:21:14;101607.44;;;17.12;100.00
72157;BME280;60035;52.122;5.406;2023-07-20T00:23:40;101595.69;;;17.05;100.00
72157;BME280;60035;52.122;5.406;2023-07-20T00:26:09;101605.34;;;17.02;100.00
72157;BME280;60035;52.122;5.406;2023-07-20T00:28:36;101606.19;;;17.02;100.00
72157;BME280;60035;52.122;5.406;2023-07-20T00:31:03;101601.88;;;17.03;100.00
72157;BME280;60035;52.122;5.406;2023-07-20T00:33:29;101603.03;;;16.95;100.00
72157;BME280;60035;52.122;5.406;2023-07-20T00:35:56;101608.34;;;16.92;100.00
72157;BME280;60035;52.122;5.406;2023-07-20T00:38:23;101602.38;;;16.90;100.00
72157;BME280;60035;52.122;5.406;2023-07-20T00:40:49;101601.78;;;16.83;100.00
72157;BME280;60035;52.122;5.406;2023-07-20T00:43:16;101601.22;;;16.77;100.00
72157;BME280;60035;52.122;5.406;2023-07-20T00:45:43;101599.41;;;16.79;100.00
72157;BME280;60035;52.122;5.406;2023-07-20T00:48:11;101600.31;;;16.78;100.00
72157;BME280;60035;52.122;5.406;2023-07-20T00:50:39;101598.84;;;16.72;100.00
72157;BME280;60035;52.122;5.406;2023-07-20T00:53:07;101594.56;;;16.71;100.00
72157;BME280;60035;52.122;5.406;2023-07-20T00:55:34;101597.25;;;16.68;100.00
72157;BME280;60035;52.122;5.406;2023-07-20T00:58:01;101600.91;;;16.64;100.00
72157;BME280;60035;52.122;5.406;2023-07-20T01:00:27;101602.06;;;16.57;100.00
72157;BME280;60035;52.122;5.406;2023-07-20T01:02:54;101601.44;;;16.52;100.00
72157;BME280;60035;52.122;5.406;2023-07-20T01:05:24;101599.09;;;16.45;100.00
72157;BME280;60035;52.122;5.406;2023-07-20T01:11:00;101604.00;;;16.31;100.00
72157;BME280;60035;52.122;5.406;2023-07-20T01:13:32;101610.28;;;16.25;100.00
72157;BME280;60035;52.122;5.406;2023-07-20T01:16:02;101610.50;;;16.19;100.00
72157;BME280;60035;52.122;5.406;2023-07-20T01:18:29;101605.47;;;16.16;100.00
72157;BME280;60035;52.122;5.406;2023-07-20T01:20:59;101598.94;;;16.07;100.00
72157;BME280;60035;52.122;5.406;2023-07-20T01:31:36;101612.19;;;15.99;100.00
72157;BME280;60035;52.122;5.406;2023-07-20T01:34:05;101609.69;;;15.96;100.00
72157;BME280;60035;52.122;5.406;2023-07-20T01:36:35;101609.03;;;15.91;100.00
72157;BME280;60035;52.122;5.406;2023-07-20T01:39:03;101612.66;;;15.87;100.00
72157;BME280;60035;52.122;5.406;2023-07-20T01:41:31;101606.78;;;15.84;100.00
72157;BME280;60035;52.122;5.406;2023-07-20T01:43:58;101608.66;;;15.78;100.00
72157;BME280;60035;52.122;5.406;2023-07-20T01:46:25;101602.03;;;15.71;100.00
72157;BME280;60035;52.122;5.406;2023-07-20T01:48:57;101602.25;;;15.66;100.00
72157;BME280;60035;52.122;5.406;2023-07-20T01:51:23;101605.88;;;15.61;100.00
72157;BME280;60035;52.122;5.406;2023-07-20T01:53:50;101610.50;;;15.53;100.00
72157;BME280;60035;52.122;5.406;2023-07-20T01:56:17;101618.59;;;15.43;100.00
72157;BME280;60035;52.122;5.406;2023-07-20T01:58:43;101616.22;;;15.37;100.00
72157;BME280;60035;52.122;5.406;2023-07-20T02:01:10;101628.53;;;15.30;100.00
72157;BME280;60035;52.122;5.406;2023-07-20T02:03:36;101626.19;;;15.24;100.00
72157;BME280;60035;52.122;5.406;2023-07-20T02:06:03;101624.63;;;15.20;100.00
72157;BME280;60035;52.122;5.406;2023-07-20T02:08:30;101621.13;;;15.21;100.00
72157;BME280;60035;52.122;5.406;2023-07-20T02:10:57;101628.03;;;15.21;100.00
72157;BME280;60035;52.122;5.406;2023-07-20T02:13:23;101617.66;;;15.22;100.00
72157;BME280;60035;52.122;5.406;2023-07-20T02:15:50;101619.41;;;15.22;100.00
72157;BME280;60035;52.122;5.406;2023-07-20T02:18:20;101621.97;;;15.22;100.00
72157;BME280;60035;52.122;5.406;2023-07-20T02:20:46;101619.28;;;15.25;100.00
72157;BME280;60035;52.122;5.406;2023-07-20T02:23:12;101624.44;;;15.25;100.00
72157;BME280;60035;52.122;5.406;2023-07-20T02:25:40;101626.00;;;15.29;100.00
72157;BME280;60035;52.122;5.406;2023-07-20T02:28:07;101617.31;;;15.31;100.00
72157;BME280;60035;52.122;5.406;2023-07-20T02:30:38;101621.56;;;15.32;100.00
72157;BME280;60035;52.122;5.406;2023-07-20T02:33:05;101619.75;;;15.35;100.00
72157;BME280;60035;52.122;5.406;2023-07-20T02:35:32;101614.56;;;15.36;100.00
72157;BME280;60035;52.122;5.406;2023-07-20T02:37:59;101612.09;;;15.33;100.00
72157;BME280;60035;52.122;5.406;2023-07-20T02:40:25;101621.63;;;15.31;100.00
72157;BME280;60035;52.122;5.406;2023-07-20T02:42:53;101626.00;;;15.29;100.00
72157;BME280;60035;52.122;5.406;2023-07-20T02:45:19;101611.47;;;15.26;100.00
72157;BME280;60035;52.122;5.406;2023-07-20T02:47:46;101616.81;;;15.22;100.00
72157;BME280;60035;52.122;5.406;2023-07-20T02:50:12;101621.19;;;15.20;100.00
72157;BME280;60035;52.122;5.406;2023-07-20T02:52:40;101625.66;;;15.14;100.00
72157;BME280;60035;52.122;5.406;2023-07-20T02:55:07;101629.47;;;15.04;100.00
72157;BME280;60035;52.122;5.406;2023-07-20T02:57:34;101622.97;;;14.94;100.00
72157;BME280;60035;52.122;5.406;2023-07-20T03:00:02;101632.66;;;14.87;100.00
72157;BME280;60035;52.122;5.406;2023-07-20T03:02:30;101633.00;;;14.76;100.00
72157;BME280;60035;52.122;5.406;2023-07-20T03:04:56;101638.28;;;14.73;100.00
72157;BME280;60035;52.122;5.406;2023-07-20T03:07:27;101640.84;;;14.73;100.00
72157;BME280;60035;52.122;5.406;2023-07-20T03:09:54;101643.53;;;14.70;100.00
72157;BME280;60035;52.122;5.406;2023-07-20T03:12:21;101648.66;;;14.72;100.00
72157;BME280;60035;52.122;5.406;2023-07-20T03:14:48;101650.47;;;14.68;100.00
72157;BME280;60035;52.122;5.406;2023-07-20T03:17:14;101652.31;;;14.64;100.00
72157;BME280;60035;52.122;5.406;2023-07-20T03:19:41;101660.84;;;14.66;100.00
72157;BME280;60035;52.122;5.406;2023-07-20T03:22:12;101666.75;;;14.70;100.00
72157;BME280;60035;52.122;5.406;2023-07-20T03:24:38;101663.28;;;14.71;100.00
72157;BME280;60035;52.122;5.406;2023-07-20T03:27:05;101666.56;;;14.75;100.00
72157;BME280;60035;52.122;5.406;2023-07-20T03:29:32;101665.88;;;14.70;100.00
72157;BME280;60035;52.122;5.406;2023-07-20T03:31:59;101668.47;;;14.70;100.00
72157;BME280;60035;52.122;5.406;2023-07-20T03:34:26;101662.47;;;14.69;100.00
72157;BME280;60035;52.122;5.406;2023-07-20T03:36:52;101663.28;;;14.71;100.00
72157;BME280;60035;52.122;5.406;2023-07-20T03:39:19;101650.41;;;14.71;100.00
72157;BME280;60035;52.122;5.406;2023-07-20T03:41:46;101657.38;;;14.68;100.00
72157;BME280;60035;52.122;5.406;2023-07-20T03:44:12;101664.38;;;14.62;100.00
72157;BME280;60035;52.122;5.406;2023-07-20T03:46:39;101671.28;;;14.62;100.00
72157;BME280;60035;52.122;5.406;2023-07-20T03:49:06;101665.34;;;14.60;100.00
72157;BME280;60035;52.122;5.406;2023-07-20T03:51:32;101664.50;;;14.59;100.00
72157;BME280;60035;52.122;5.406;2023-07-20T03:53:59;101665.47;;;14.55;100.00
72157;BME280;60035;52.122;5.406;2023-07-20T03:56:25;101669.16;;;14.48;100.00
72157;BME280;60035;52.122;5.406;2023-07-20T03:58:52;101666.06;;;14.37;100.00
72157;BME280;60035;52.122;5.406;2023-07-20T04:01:19;101665.59;;;14.25;100.00
72157;BME280;60035;52.122;5.406;2023-07-20T04:03:46;101670.16;;;14.15;100.00
72157;BME280;60035;52.122;5.406;2023-07-20T04:06:15;101673.03;;;14.06;100.00
72157;BME280;60035;52.122;5.406;2023-07-20T04:08:44;101679.44;;;13.93;100.00
72157;BME280;60035;52.122;5.406;2023-07-20T04:11:10;101679.78;;;13.82;100.00
72157;BME280;60035;52.122;5.406;2023-07-20T04:13:37;101675.72;;;13.75;100.00
72157;BME280;60035;52.122;5.406;2023-07-20T04:16:04;101680.84;;;13.75;100.00
72157;BME280;60035;52.122;5.406;2023-07-20T04:18:30;101680.94;;;13.72;100.00
72157;BME280;60035;52.122;5.406;2023-07-20T04:20:57;101682.63;;;13.73;100.00
72157;BME280;60035;52.122;5.406;2023-07-20T04:23:23;101685.97;;;13.76;100.00
72157;BME280;60035;52.122;5.406;2023-07-20T04:25:50;101694.50;;;13.77;100.00
72157;BME280;60035;52.122;5.406;2023-07-20T04:28:18;101698.72;;;13.79;100.00
72157;BME280;60035;52.122;5.406;2023-07-20T04:30:44;101690.03;;;13.83;100.00
72157;BME280;60035;52.122;5.406;2023-07-20T04:33:11;101693.41;;;13.86;100.00
72157;BME280;60035;52.122;5.406;2023-07-20T04:35:51;101695.81;;;13.90;100.00
72157;BME280;60035;52.122;5.406;2023-07-20T04:38:19;101690.69;;;13.90;100.00
72157;BME280;60035;52.122;5.406;2023-07-20T04:40:48;101697.63;;;13.88;100.00
72157;BME280;60035;52.122;5.406;2023-07-20T04:43:16;101695.13;;;13.85;100.00
72157;BME280;60035;52.122;5.406;2023-07-20T04:45:43;101701.91;;;13.88;100.00
72157;BME280;60035;52.122;5.406;2023-07-20T04:48:11;101699.97;;;13.96;100.00
72157;BME280;60035;52.122;5.406;2023-07-20T04:50:43;101698.84;;;14.05;100.00
72157;BME280;60035;52.122;5.406;2023-07-20T04:53:10;101704.75;;;14.08;100.00
72157;BME280;60035;52.122;5.406;2023-07-20T04:55:40;101699.38;;;14.16;100.00
72157;BME280;60035;52.122;5.406;2023-07-20T04:58:20;101701.06;;;14.15;100.00
72157;BME280;60035;52.122;5.406;2023-07-20T05:00:50;101696.59;;;14.22;100.00
72157;BME280;60035;52.122;5.406;2023-07-20T05:03:17;101704.88;;;14.32;100.00
72157;BME280;60035;52.122;5.406;2023-07-20T05:05:44;101699.63;;;14.35;100.00
72157;BME280;60035;52.122;5.406;2023-07-20T05:08:15;101695.88;;;14.45;100.00
72157;BME280;60035;52.122;5.406;2023-07-20T05:10:42;101702.34;;;14.57;100.00
72157;BME280;60035;52.122;5.406;2023-07-20T05:13:09;101702.22;;;14.62;100.00
72157;BME280;60035;52.122;5.406;2023-07-20T05:15:35;101700.25;;;14.70;100.00
72157;BME280;60035;52.122;5.406;2023-07-20T05:18:02;101708.53;;;14.80;100.00
72157;BME280;60035;52.122;5.406;2023-07-20T05:20:28;101708.16;;;14.91;100.00
72157;BME280;60035;52.122;5.406;2023-07-20T05:22:55;101700.03;;;15.03;100.00
72157;BME280;60035;52.122;5.406;2023-07-20T05:25:22;101695.44;;;15.11;100.00
72157;BME280;60035;52.122;5.406;2023-07-20T05:27:49;101700.06;;;15.27;100.00
72157;BME280;60035;52.122;5.406;2023-07-20T05:30:16;101691.94;;;15.38;100.00
72157;BME280;60035;52.122;5.406;2023-07-20T05:32:43;101701.91;;;15.47;100.00
72157;BME280;60035;52.122;5.406;2023-07-20T05:35:11;101697.44;;;15.52;100.00
72157;BME280;60035;52.122;5.406;2023-07-20T05:37:38;101701.25;;;15.65;100.00
72157;BME280;60035;52.122;5.406;2023-07-20T05:40:05;101703.47;;;15.75;100.00
72157;BME280;60035;52.122;5.406;2023-07-20T05:42:34;101699.69;;;15.85;100.00
72157;BME280;60035;52.122;5.406;2023-07-20T05:45:00;101703.78;;;15.91;100.00
72157;BME280;60035;52.122;5.406;2023-07-20T05:47:27;101699.22;;;15.97;100.00
72157;BME280;60035;52.122;5.406;2023-07-20T05:49:53;101704.63;;;16.13;100.00
72157;BME280;60035;52.122;5.406;2023-07-20T05:52:20;101701.69;;;16.23;100.00
72157;BME280;60035;52.122;5.406;2023-07-20T05:54:46;101699.69;;;16.29;100.00
72157;BME280;60035;52.122;5.406;2023-07-20T05:57:13;101695.78;;;16.41;100.00
72157;BME280;60035;52.122;5.406;2023-07-20T05:59:39;101695.34;;;16.52;100.00
72157;BME280;60035;52.122;5.406;2023-07-20T06:02:10;101693.22;;;16.62;100.00
72157;BME280;60035;52.122;5.406;2023-07-20T06:04:38;101702.28;;;16.72;100.00
72157;BME280;60035;52.122;5.406;2023-07-20T06:07:06;101704.53;;;16.80;100.00
72157;BME280;60035;52.122;5.406;2023-07-20T06:09:34;101702.50;;;16.88;100.00
72157;BME280;60035;52.122;5.406;2023-07-20T06:12:01;101706.44;;;16.97;100.00
72157;BME280;60035;52.122;5.406;2023-07-20T06:14:27;101711.44;;;17.02;100.00
72157;BME280;60035;52.122;5.406;2023-07-20T06:16:54;101711.03;;;17.11;100.00
72157;BME280;60035;52.122;5.406;2023-07-20T06:19:20;101709.66;;;17.23;100.00
72157;BME280;60035;52.122;5.406;2023-07-20T06:22:09;101712.59;;;17.34;100.00
72157;BME280;60035;52.122;5.406;2023-07-20T06:24:35;101707.09;;;17.42;100.00
72157;BME280;60035;52.122;5.406;2023-07-20T06:27:02;101711.88;;;17.51;100.00
72157;BME280;60035;52.122;5.406;2023-07-20T06:29:29;101715.25;;;17.53;99.84
72157;BME280;60035;52.122;5.406;2023-07-20T06:31:55;101710.69;;;17.58;99.84
72157;BME280;60035;52.122;5.406;2023-07-20T06:34:22;101715.56;;;17.64;100.00
72157;BME280;60035;52.122;5.406;2023-07-20T06:36:49;101714.53;;;17.69;99.61
72157;BME280;60035;52.122;5.406;2023-07-20T06:39:16;101720.34;;;17.74;99.33
72157;BME280;60035;52.122;5.406;2023-07-20T06:41:45;101714.25;;;17.75;97.28
72157;BME280;60035;52.122;5.406;2023-07-20T06:44:12;101727.44;;;17.70;96.05
72157;BME280;60035;52.122;5.406;2023-07-20T06:46:38;101727.00;;;17.79;95.81
72157;BME280;60035;52.122;5.406;2023-07-20T06:49:06;101723.63;;;17.77;94.86
72157;BME280;60035;52.122;5.406;2023-07-20T06:51:36;101727.69;;;17.83;95.38
72157;BME280;60035;52.122;5.406;2023-07-20T06:54:03;101739.16;;;17.98;94.55
72157;BME280;60035;52.122;5.406;2023-07-20T06:56:31;101728.78;;;17.98;93.86
72157;BME280;60035;52.122;5.406;2023-07-20T06:58:59;101739.81;;;18.21;93.38
72157;BME280;60035;52.122;5.406;2023-07-20T07:01:25;101740.00;;;18.35;91.55
72157;BME280;60035;52.122;5.406;2023-07-20T07:03:52;101732.06;;;18.56;91.47
72157;BME280;60035;52.122;5.406;2023-07-20T07:06:21;101738.41;;;18.50;89.04
72157;BME280;60035;52.122;5.406;2023-07-20T07:08:50;101732.84;;;18.40;89.27
72157;BME280;60035;52.122;5.406;2023-07-20T07:11:17;101729.56;;;18.37;87.80
72157;BME280;60035;52.122;5.406;2023-07-20T07:13:43;101736.56;;;18.35;88.24
72157;BME280;60035;52.122;5.406;2023-07-20T07:16:13;101732.41;;;18.50;88.04
72157;BME280;60035;52.122;5.406;2023-07-20T07:18:46;101736.88;;;18.46;88.38
72157;BME280;60035;52.122;5.406;2023-07-20T07:21:13;101735.28;;;18.43;87.86
72157;BME280;60035;52.122;5.406;2023-07-20T07:23:39;101730.69;;;18.31;87.54
72157;BME280;60035;52.122;5.406;2023-07-20T07:26:09;101733.28;;;18.31;87.17
72157;BME280;60035;52.122;5.406;2023-07-20T07:28:36;101736.34;;;18.57;87.64
72157;BME280;60035;52.122;5.406;2023-07-20T07:31:06;101733.22;;;18.85;85.72
72157;BME280;60035;52.122;5.406;2023-07-20T07:33:33;101732.31;;;19.04;84.30
72157;BME280;60035;52.122;5.406;2023-07-20T07:36:01;101735.81;;;19.20;83.14
72157;BME280;60035;52.122;5.406;2023-07-20T07:38:28;101731.50;;;19.37;83.08
72157;BME280;60035;52.122;5.406;2023-07-20T07:41:15;101734.97;;;19.53;81.05
72157;BME280;60035;52.122;5.406;2023-07-20T07:43:41;101734.47;;;19.62;80.58
72157;BME280;60035;52.122;5.406;2023-07-20T07:46:08;101729.06;;;19.83;80.27
72157;BME280;60035;52.122;5.406;2023-07-20T07:48:35;101734.09;;;20.02;78.05
72157;BME280;60035;52.122;5.406;2023-07-20T07:51:02;101740.13;;;20.19;75.10
72157;BME280;60035;52.122;5.406;2023-07-20T07:53:29;101734.16;;;20.33;73.83
72157;BME280;60035;52.122;5.406;2023-07-20T07:55:55;101731.13;;;20.40;71.76
72157;BME280;60035;52.122;5.406;2023-07-20T07:58:22;101739.03;;;20.53;72.07
72157;BME280;60035;52.122;5.406;2023-07-20T08:00:49;101732.09;;;20.54;72.31
72157;BME280;60035;52.122;5.406;2023-07-20T08:03:15;101739.16;;;20.36;72.15
72157;BME280;60035;52.122;5.406;2023-07-20T08:05:42;101739.38;;;20.17;72.55
72157;BME280;60035;52.122;5.406;2023-07-20T08:08:09;101739.22;;;19.88;73.91
72157;BME280;60035;52.122;5.406;2023-07-20T08:10:36;101732.88;;;19.60;76.30
72157;BME280;60035;52.122;5.406;2023-07-20T08:13:02;101740.47;;;19.47;74.24
72157;BME280;60035;52.122;5.406;2023-07-20T08:15:29;101735.44;;;19.28;74.04
72157;BME280;60035;52.122;5.406;2023-07-20T08:17:55;101743.59;;;19.20;74.40
72157;BME280;60035;52.122;5.406;2023-07-20T08:20:27;101742.09;;;19.16;74.66
72157;BME280;60035;52.122;5.406;2023-07-20T08:22:54;101736.16;;;19.30;73.83
72157;BME280;60035;52.122;5.406;2023-07-20T08:25:21;101739.31;;;19.19;73.43
72157;BME280;60035;52.122;5.406;2023-07-20T08:27:48;101746.97;;;19.05;73.89
72157;BME280;60035;52.122;5.406;2023-07-20T08:30:15;101745.28;;;19.21;73.72
72157;BME280;60035;52.122;5.406;2023-07-20T08:32:41;101736.16;;;19.47;70.52
72157;BME280;60035;52.122;5.406;2023-07-20T08:35:08;101735.41;;;19.77;67.23
72157;BME280;60035;52.122;5.406;2023-07-20T08:37:36;101738.94;;;19.92;60.35
72157;BME280;60035;52.122;5.406;2023-07-20T08:40:03;101743.06;;;20.12;58.48
72157;BME280;60035;52.122;5.406;2023-07-20T08:42:30;101744.22;;;20.23;57.02
72157;BME280;60035;52.122;5.406;2023-07-20T08:44:58;101747.75;;;20.22;57.01
72157;BME280;60035;52.122;5.406;2023-07-20T08:47:25;101746.25;;;20.34;57.13
72157;BME280;60035;52.122;5.406;2023-07-20T08:49:54;101746.03;;;20.53;58.35
72157;BME280;60035;52.122;5.406;2023-07-20T08:52:21;101742.28;;;20.73;57.29
72157;BME280;60035;52.122;5.406;2023-07-20T08:54:49;101737.44;;;20.97;57.64
72157;BME280;60035;52.122;5.406;2023-07-20T08:57:16;101743.59;;;21.25;57.73
72157;BME280;60035;52.122;5.406;2023-07-20T08:59:43;101737.88;;;21.47;56.81
72157;BME280;60035;52.122;5.406;2023-07-20T09:02:12;101734.81;;;21.69;56.26
72157;BME280;60035;52.122;5.406;2023-07-20T09:04:48;101737.84;;;21.90;55.56
72157;BME280;60035;52.122;5.406;2023-07-20T09:07:19;101736.41;;;22.13;54.21
72157;BME280;60035;52.122;5.406;2023-07-20T09:09:46;101737.44;;;22.24;52.55
72157;BME280;60035;52.122;5.406;2023-07-20T09:12:16;101729.44;;;22.27;52.71
72157;BME280;60035;52.122;5.406;2023-07-20T09:14:44;101733.41;;;22.05;50.37
72157;BME280;60035;52.122;5.406;2023-07-20T09:17:14;101729.59;;;21.84;50.76
72157;BME280;60035;52.122;5.406;2023-07-20T09:19:47;101731.56;;;21.51;50.81
72157;BME280;60035;52.122;5.406;2023-07-20T09:22:14;101731.03;;;21.46;51.47
72157;BME280;60035;52.122;5.406;2023-07-20T09:24:41;101733.69;;;21.44;52.09
72157;BME280;60035;52.122;5.406;2023-07-20T09:27:10;101736.50;;;21.41;52.03
72157;BME280;60035;52.122;5.406;2023-07-20T09:29:53;101733.88;;;21.85;51.49
72157;BME280;60035;52.122;5.406;2023-07-20T09:32:20;101731.44;;;21.82;51.31
72157;BME280;60035;52.122;5.406;2023-07-20T09:34:51;101735.56;;;21.71;50.75
72157;BME280;60035;52.122;5.406;2023-07-20T09:37:22;101737.72;;;21.65;50.66
72157;BME280;60035;52.122;5.406;2023-07-20T09:39:51;101736.63;;;21.54;49.41
72157;BME280;60035;52.122;5.406;2023-07-20T09:42:21;101738.09;;;21.58;50.38
72157;BME280;60035;52.122;5.406;2023-07-20T09:44:51;101734.34;;;21.77;48.22
72157;BME280;60035;52.122;5.406;2023-07-20T09:47:23;101736.69;;;22.09;47.65
72157;BME280;60035;52.122;5.406;2023-07-20T09:49:59;101737.47;;;22.51;46.55
72157;BME280;60035;52.122;5.406;2023-07-20T09:52:29;101731.13;;;22.94;48.50
72157;BME280;60035;52.122;5.406;2023-07-20T09:54:59;101728.78;;;23.17;45.38
72157;BME280;60035;52.122;5.406;2023-07-20T09:57:27;101731.75;;;22.85;44.22
72157;BME280;60035;52.122;5.406;2023-07-20T09:59:54;101724.81;;;22.45;44.37
72157;BME280;60035;52.122;5.406;2023-07-20T10:02:25;101726.72;;;22.28;44.40
72157;BME280;60035;52.122;5.406;2023-07-20T10:04:53;101726.41;;;22.20;45.60
72157;BME280;60035;52.122;5.406;2023-07-20T10:07:22;101723.53;;;22.10;44.05
72157;BME280;60035;52.122;5.406;2023-07-20T10:09:52;101728.06;;;21.94;44.33
72157;BME280;60035;52.122;5.406;2023-07-20T10:12:22;101724.41;;;22.24;44.27
72157;BME280;60035;52.122;5.406;2023-07-20T10:15:08;101723.59;;;22.76;43.74
72157;BME280;60035;52.122;5.406;2023-07-20T10:17:40;101723.28;;;23.07;42.56
72157;BME280;60035;52.122;5.406;2023-07-20T10:20:11;101709.59;;;23.42;42.01
72157;BME280;60035;52.122;5.406;2023-07-20T10:22:38;101711.97;;;23.82;41.33
72157;BME280;60035;52.122;5.406;2023-07-20T10:25:08;101705.13;;;24.05;39.10
72157;BME280;60035;52.122;5.406;2023-07-20T10:27:36;101706.94;;;23.92;39.26
72157;BME280;60035;52.122;5.406;2023-07-20T10:30:03;101710.97;;;23.72;39.21
72157;BME280;60035;52.122;5.406;2023-07-20T10:32:32;101709.38;;;23.45;39.85
72157;BME280;60035;52.122;5.406;2023-07-20T10:34:58;101712.53;;;23.37;41.39
72157;BME280;60035;52.122;5.406;2023-07-20T10:37:54;101713.03;;;23.79;41.75
72157;BME280;60035;52.122;5.406;2023-07-20T10:43:04;101700.28;;;24.23;42.01
72157;BME280;60035;52.122;5.406;2023-07-20T10:45:55;101698.91;;;24.42;40.39
72157;BME280;60035;52.122;5.406;2023-07-20T10:48:27;101701.41;;;24.68;39.21
72157;BME280;60035;52.122;5.406;2023-07-20T10:51:19;101693.31;;;24.93;39.34
72157;BME280;60035;52.122;5.406;2023-07-20T10:53:48;101685.91;;;25.21;37.49
72157;BME280;60035;52.122;5.406;2023-07-20T10:56:21;101692.63;;;24.91;36.97
72157;BME280;60035;52.122;5.406;2023-07-20T10:58:49;101697.91;;;24.56;39.21
72157;BME280;60035;52.122;5.406;2023-07-20T11:01:17;101694.94;;;24.25;38.50
72157;BME280;60035;52.122;5.406;2023-07-20T11:03:49;101695.31;;;23.96;39.54
72157;BME280;60035;52.122;5.406;2023-07-20T11:09:14;101687.06;;;24.14;40.85
72157;BME280;60035;52.122;5.406;2023-07-20T11:11:48;101685.00;;;24.53;40.33
72157;BME280;60035;52.122;5.406;2023-07-20T11:14:21;101683.56;;;25.18;39.40
72157;BME280;60035;52.122;5.406;2023-07-20T11:16:49;101681.06;;;25.05;37.65
72157;BME280;60035;52.122;5.406;2023-07-20T11:19:21;101681.78;;;24.85;37.95
72157;BME280;60035;52.122;5.406;2023-07-20T11:21:57;101679.38;;;24.70;38.26
72157;BME280;60035;52.122;5.406;2023-07-20T11:24:30;101675.69;;;24.73;38.00
72157;BME280;60035;52.122;5.406;2023-07-20T11:26:57;101669.28;;;25.00;38.83
72157;BME280;60035;52.122;5.406;2023-07-20T11:29:24;101674.25;;;25.37;37.24
72157;BME280;60035;52.122;5.406;2023-07-20T11:31:59;101673.63;;;25.33;35.65
72157;BME280;60035;52.122;5.406;2023-07-20T11:34:26;101665.28;;;25.28;36.30
72157;BME280;60035;52.122;5.406;2023-07-20T11:36:53;101674.97;;;25.27;35.46
72157;BME280;60035;52.122;5.406;2023-07-20T11:39:24;101667.47;;;25.11;35.04
72157;BME280;60035;52.122;5.406;2023-07-20T11:41:54;101667.22;;;25.26;36.06
72157;BME280;60035;52.122;5.406;2023-07-20T11:44:22;101661.22;;;25.58;35.50
72157;BME280;60035;52.122;5.406;2023-07-20T11:49:36;101662.56;;;26.38;35.10
72157;BME280;60035;52.122;5.406;2023-07-20T11:52:08;101657.72;;;26.86;34.37
72157;BME280;60035;52.122;5.406;2023-07-20T11:54:35;101662.19;;;27.05;33.33
72157;BME280;60035;52.122;5.406;2023-07-20T11:57:03;101654.59;;;26.50;33.34
72157;BME280;60035;52.122;5.406;2023-07-20T11:59:32;101655.78;;;25.82;35.03
72157;BME280;60035;52.122;5.406;2023-07-20T12:02:01;101654.34;;;25.46;35.66
72157;BME280;60035;52.122;5.406;2023-07-20T12:04:31;101645.78;;;25.21;34.62
72157;BME280;60035;52.122;5.406;2023-07-20T12:06:58;101652.47;;;24.80;35.53
72157;BME280;60035;52.122;5.406;2023-07-20T12:09:25;101655.94;;;24.80;35.68
72157;BME280;60035;52.122;5.406;2023-07-20T12:12:10;101652.59;;;24.67;36.52
72157;BME280;60035;52.122;5.406;2023-07-20T12:14:39;101651.78;;;24.89;37.32
72157;BME280;60035;52.122;5.406;2023-07-20T12:17:08;101647.31;;;25.35;36.03
72157;BME280;60035;52.122;5.406;2023-07-20T12:19:38;101640.41;;;26.10;35.25
72157;BME280;60035;52.122;5.406;2023-07-20T12:22:05;101631.59;;;26.42;33.83
72157;BME280;60035;52.122;5.406;2023-07-20T12:24:32;101638.28;;;26.46;34.17
72157;BME280;60035;52.122;5.406;2023-07-20T12:26:59;101645.09;;;26.06;34.51
72157;BME280;60035;52.122;5.406;2023-07-20T12:29:25;101644.41;;;25.60;35.72
72157;BME280;60035;52.122;5.406;2023-07-20T12:31:52;101636.59;;;25.26;36.64
72157;BME280;60035;52.122;5.406;2023-07-20T12:34:19;101639.69;;;25.20;38.13
72157;BME280;60035;52.122;5.406;2023-07-20T12:36:45;101638.75;;;25.21;38.05
72157;BME280;60035;52.122;5.406;2023-07-20T12:39:12;101634.28;;;25.88;37.88
72157;BME280;60035;52.122;5.406;2023-07-20T12:41:38;101636.00;;;26.32;37.09
72157;BME280;60035;52.122;5.406;2023-07-20T12:44:05;101637.63;;;26.11;36.69
72157;BME280;60035;52.122;5.406;2023-07-20T12:46:31;101634.66;;;25.84;37.27
72157;BME280;60035;52.122;5.406;2023-07-20T12:49:07;101631.66;;;25.56;37.54
72157;BME280;60035;52.122;5.406;2023-07-20T12:51:33;101631.69;;;25.33;37.48
72157;BME280;60035;52.122;5.406;2023-07-20T12:54:00;101628.84;;;25.14;38.02
72157;BME280;60035;52.122;5.406;2023-07-20T12:56:26;101632.69;;;24.87;38.12
72157;BME280;60035;52.122;5.406;2023-07-20T12:58:56;101629.13;;;24.76;38.15
72157;BME280;60035;52.122;5.406;2023-07-20T13:01:22;101633.16;;;24.81;39.10
72157;BME280;60035;52.122;5.406;2023-07-20T13:03:50;101628.66;;;24.83;38.62
72157;BME280;60035;52.122;5.406;2023-07-20T13:06:20;101624.38;;;24.93;38.78
72157;BME280;60035;52.122;5.406;2023-07-20T13:08:50;101628.53;;;24.84;39.17
72157;BME280;60035;52.122;5.406;2023-07-20T13:11:21;101625.41;;;24.56;39.27